createdAt,value
2019-02-18T00:02:04.138Z,14.97
2019-02-18T00:04:34.618Z,15.37
2019-02-18T00:07:03.455Z,15.07
2019-02-18T00:09:32.356Z,14.20
2019-02-18T00:12:01.293Z,14.70
2019-02-18T00:14:30.291Z,14.77
2019-02-18T00:16:59.532Z,14.50
2019-02-18T00:19:29.494Z,15.20
2019-02-18T00:21:58.464Z,14.17
2019-02-18T00:24:27.903Z,15.50
2019-02-18T00:26:57.277Z,15.50
2019-02-18T00:29:26.816Z,15.77
2019-02-18T00:31:57.664Z,14.10
2019-02-18T00:34:29.807Z,14.83
2019-02-18T00:36:58.741Z,14.93
2019-02-18T00:39:28.035Z,15.27
2019-02-18T00:41:56.971Z,15.57
2019-02-18T00:44:25.861Z,15.17
2019-02-18T00:46:55.432Z,15.67
2019-02-18T00:49:26.144Z,15.43
2019-02-18T00:51:54.993Z,14.17
2019-02-18T00:54:25.438Z,14.37
2019-02-18T00:56:54.356Z,15.93
2019-02-18T00:59:23.415Z,15.47
2019-02-18T01:01:52.296Z,14.60
2019-02-18T01:04:24.655Z,14.93
2019-02-18T01:17:41.119Z,15.60
2019-02-18T01:20:10.720Z,14.70
2019-02-18T01:22:39.557Z,16.17
2019-02-18T01:25:10.150Z,14.67
2019-02-18T01:27:39.142Z,13.60
2019-02-18T01:30:10.910Z,13.80
2019-02-18T01:32:39.809Z,14.63
2019-02-18T01:35:09.363Z,14.47
2019-02-18T01:37:45.248Z,14.90
2019-02-18T01:40:11.690Z,13.70
2019-02-18T01:42:40.622Z,14.80
2019-02-18T01:45:11.141Z,13.63
2019-02-18T01:47:39.940Z,14.07
2019-02-18T01:50:13.613Z,14.57
2019-02-18T01:52:42.659Z,14.40
2019-02-18T01:55:12.717Z,14.57
2019-02-18T01:57:41.631Z,14.17
2019-02-18T02:00:13.193Z,14.57
2019-02-18T02:02:42.240Z,13.67
2019-02-18T02:05:12.968Z,13.60
2019-02-18T02:07:42.241Z,13.90
2019-02-18T02:10:12.717Z,14.03
2019-02-18T02:12:41.979Z,14.17
2019-02-18T02:15:20.229Z,13.63
2019-02-18T02:17:49.241Z,14.10
2019-02-18T02:20:18.054Z,14.43
2019-02-18T02:22:46.994Z,14.20
2019-02-18T02:25:16.151Z,14.23
2019-02-18T02:27:45.079Z,14.13
2019-02-18T02:30:13.998Z,13.73
2019-02-18T02:32:42.998Z,14.03
2019-02-18T02:35:12.293Z,13.60
2019-02-18T02:37:41.665Z,13.07
2019-02-18T02:40:10.660Z,13.60
2019-02-18T02:42:39.495Z,13.33
2019-02-18T02:45:08.494Z,13.40
2019-02-18T02:47:38.434Z,13.03
2019-02-18T02:50:08.133Z,13.93
2019-02-18T02:52:37.074Z,13.17
2019-02-18T02:55:06.049Z,12.43
2019-02-18T02:57:34.962Z,12.80
2019-02-18T03:00:05.465Z,13.70
2019-02-18T03:02:34.429Z,13.00
2019-02-18T03:05:03.730Z,12.80
2019-02-18T03:07:32.579Z,13.47
2019-02-18T03:10:01.387Z,14.07
2019-02-18T03:12:30.282Z,13.33
2019-02-18T03:14:59.303Z,13.20
2019-02-18T03:17:28.120Z,13.17
2019-02-18T03:19:57.061Z,13.07
2019-02-18T03:22:26.656Z,13.30
2019-02-18T03:25:23.809Z,12.83
2019-02-18T03:28:19.363Z,13.07
2019-02-18T03:31:09.313Z,12.30
2019-02-18T03:33:44.735Z,12.77
2019-02-18T03:36:13.545Z,12.67
2019-02-18T03:38:42.351Z,12.63
2019-02-18T03:41:11.953Z,12.77
2019-02-18T03:43:41.154Z,13.23
2019-02-18T03:46:10.222Z,12.87
2019-02-18T03:48:39.100Z,12.63
2019-02-18T03:51:08.073Z,12.03
2019-02-18T03:53:36.923Z,11.73
2019-02-18T03:56:05.851Z,12.43
2019-02-18T03:58:34.754Z,12.50
2019-02-18T04:01:03.733Z,12.60
2019-02-18T04:03:32.697Z,12.47
2019-02-18T04:06:01.500Z,12.20
2019-02-18T04:08:42.050Z,12.40
2019-02-18T04:11:01.489Z,11.73
2019-02-18T04:13:30.707Z,12.10
2019-02-18T04:15:59.853Z,11.53
2019-02-18T04:18:28.658Z,11.87
2019-02-18T04:20:57.554Z,11.97
2019-02-18T04:23:26.593Z,11.47
2019-02-18T04:25:56.036Z,11.67
2019-02-18T04:28:24.871Z,12.23
2019-02-18T04:30:54.148Z,12.20
2019-02-18T04:33:22.954Z,12.60
2019-02-18T04:35:51.782Z,12.00
2019-02-18T04:38:20.646Z,12.37
2019-02-18T04:40:49.467Z,11.60
2019-02-18T04:43:18.347Z,11.37
2019-02-18T04:45:47.411Z,11.43
2019-02-18T04:48:16.220Z,12.13
2019-02-18T04:50:45.058Z,11.60
2019-02-18T04:53:13.915Z,11.80
2019-02-18T04:55:43.145Z,12.47
2019-02-18T04:58:12.083Z,11.90
2019-02-18T05:00:41.232Z,11.73
2019-02-18T05:03:10.060Z,12.43
2019-02-18T05:05:38.977Z,11.33
2019-02-18T05:08:07.924Z,11.70
2019-02-18T05:10:36.822Z,11.63
2019-02-18T05:13:05.739Z,12.23
2019-02-18T05:15:34.775Z,12.13
2019-02-18T05:18:03.621Z,11.63
2019-02-18T05:20:32.403Z,11.57
2019-02-18T05:23:01.521Z,11.37
2019-02-18T05:25:30.496Z,12.10
2019-02-18T05:27:59.585Z,11.80
2019-02-18T05:30:29.551Z,11.60
2019-02-18T05:32:58.436Z,11.73
2019-02-18T05:35:27.367Z,11.97
2019-02-18T05:37:56.185Z,11.17
2019-02-18T05:40:25.050Z,11.37
2019-02-18T05:42:53.965Z,11.83
2019-02-18T05:45:24.216Z,11.40
2019-02-18T05:47:53.748Z,11.60
2019-02-18T05:50:22.843Z,11.50
2019-02-18T05:52:51.827Z,11.50
2019-02-18T05:55:21.145Z,11.27
2019-02-18T05:57:56.389Z,12.00
2019-02-18T06:00:25.331Z,12.10
2019-02-18T06:02:54.838Z,11.30
2019-02-18T06:05:23.893Z,12.37
2019-02-18T06:07:54.791Z,12.03
2019-02-18T06:10:23.749Z,12.83
2019-02-18T06:12:52.567Z,12.70
2019-02-18T06:15:21.447Z,13.43
2019-02-18T06:17:50.908Z,13.03
2019-02-18T06:20:19.917Z,12.50
2019-02-18T06:22:48.840Z,12.27
2019-02-18T06:25:17.870Z,12.00
2019-02-18T06:27:46.830Z,12.10
2019-02-18T06:30:15.640Z,12.70
2019-02-18T06:32:44.555Z,12.97
2019-02-18T06:35:14.640Z,12.57
2019-02-18T06:37:43.555Z,12.63
2019-02-18T06:40:12.642Z,11.87
2019-02-18T06:43:18.415Z,12.20
2019-02-18T06:45:53.467Z,12.57
2019-02-18T06:48:28.582Z,12.13
2019-02-18T06:51:00.935Z,12.30
2019-02-18T06:53:33.787Z,13.30
2019-02-18T06:56:03.025Z,12.03
2019-02-18T06:59:00.152Z,12.77
2019-02-18T07:01:51.188Z,13.03
2019-02-18T07:04:35.634Z,12.77
2019-02-18T07:07:12.897Z,12.77
2019-02-18T07:09:51.636Z,13.40
2019-02-18T07:12:32.311Z,12.43
2019-02-18T07:15:01.407Z,12.67
2019-02-18T07:17:30.552Z,12.67
2019-02-18T07:19:59.386Z,12.17
2019-02-18T07:22:29.683Z,13.30
2019-02-18T07:24:58.505Z,12.87
2019-02-18T07:27:31.928Z,13.47
2019-02-18T07:30:02.112Z,12.10
2019-02-18T07:32:30.917Z,12.80
2019-02-18T07:34:59.870Z,13.17
2019-02-18T07:37:28.683Z,13.67
2019-02-18T07:40:01.471Z,12.90
2019-02-18T07:42:34.697Z,13.40
2019-02-18T07:45:02.106Z,14.13
2019-02-18T07:47:31.204Z,17.03
2019-02-18T07:50:00.599Z,17.40
2019-02-18T07:52:29.837Z,15.43
2019-02-18T07:54:58.816Z,15.23
2019-02-18T07:57:28.089Z,16.33
2019-02-18T07:59:57.074Z,16.10
2019-02-18T08:02:26.703Z,15.23
2019-02-18T08:04:55.621Z,15.50
2019-02-18T08:07:24.672Z,16.47
2019-02-18T08:09:53.613Z,16.23
2019-02-18T08:12:23.052Z,16.07
2019-02-18T08:14:52.043Z,15.97
2019-02-18T08:17:21.090Z,17.13
2019-02-18T08:19:51.214Z,17.60
2019-02-18T08:22:20.082Z,16.93
2019-02-18T08:24:49.318Z,15.70
2019-02-18T08:27:18.149Z,15.27
2019-02-18T08:29:47.229Z,14.00
2019-02-18T08:32:16.059Z,14.90
2019-02-18T08:34:45.082Z,14.20
2019-02-18T08:37:14.475Z,13.87
2019-02-18T08:39:44.393Z,14.93
2019-02-18T08:42:13.935Z,14.77
2019-02-18T08:44:43.175Z,13.83
2019-02-18T08:47:12.677Z,14.30
2019-02-18T08:49:41.526Z,13.80
2019-02-18T08:52:11.154Z,14.37
2019-02-18T08:54:40.307Z,13.13
2019-02-18T08:57:09.679Z,13.83
2019-02-18T08:59:38.861Z,14.37
2019-02-18T09:02:09.238Z,14.13
2019-02-18T09:04:38.788Z,14.33
2019-02-18T09:07:07.674Z,14.17
2019-02-18T09:09:36.929Z,13.87
2019-02-18T09:12:06.125Z,14.43
2019-02-18T09:14:34.898Z,13.47
2019-02-18T09:17:05.611Z,13.67
2019-02-18T09:19:35.517Z,14.03
2019-02-18T09:22:23.738Z,13.50
2019-02-18T09:24:59.250Z,13.20
2019-02-18T09:27:28.086Z,14.13
2019-02-18T09:29:56.986Z,13.57
2019-02-18T09:32:25.899Z,13.67
2019-02-18T09:35:01.758Z,13.90
2019-02-18T09:37:26.003Z,13.30
2019-02-18T09:39:55.153Z,13.30
2019-02-18T09:42:26.502Z,13.07
2019-02-18T09:44:54.965Z,14.10
2019-02-18T09:47:24.147Z,14.40
2019-02-18T09:49:53.270Z,13.77
2019-02-18T09:52:22.358Z,13.43
2019-02-18T09:54:51.400Z,14.33
2019-02-18T09:57:20.458Z,14.27
2019-02-18T09:59:49.463Z,14.40
2019-02-18T10:02:18.482Z,13.77
2019-02-18T10:04:47.269Z,14.00
2019-02-18T10:07:16.121Z,12.97
2019-02-18T10:09:44.917Z,14.07
2019-02-18T10:12:18.241Z,13.57
2019-02-18T10:14:45.818Z,13.27
2019-02-18T10:17:14.663Z,13.27
2019-02-18T10:19:43.457Z,13.80
2019-02-18T10:22:12.273Z,13.60
2019-02-18T10:24:50.712Z,13.90
2019-02-18T10:27:12.134Z,14.40
2019-02-18T10:29:41.043Z,12.80
2019-02-18T10:32:10.405Z,13.57
2019-02-18T10:34:39.527Z,13.70
2019-02-18T10:37:09.954Z,14.37
2019-02-18T10:39:38.773Z,13.93
2019-02-18T10:42:08.049Z,13.33
2019-02-18T10:44:36.986Z,13.63
2019-02-18T10:47:08.074Z,14.50
2019-02-18T10:49:37.077Z,13.10
2019-02-18T10:52:06.881Z,12.97
2019-02-18T10:54:36.454Z,13.03
2019-02-18T10:57:05.767Z,12.17
2019-02-18T10:59:35.000Z,12.10
2019-02-18T11:02:04.276Z,11.20
2019-02-18T11:04:33.539Z,11.27
2019-02-18T11:07:02.565Z,11.57
2019-02-18T11:09:31.358Z,11.10
2019-02-18T11:12:00.189Z,10.80
2019-02-18T11:14:29.131Z,10.90
2019-02-18T11:16:58.342Z,11.00
2019-02-18T11:19:27.149Z,11.00
2019-02-18T11:21:56.435Z,19.07
2019-02-18T11:24:25.565Z,11.77
2019-02-18T11:26:54.990Z,10.97
2019-02-18T11:29:24.201Z,10.80
2019-02-18T11:31:53.577Z,10.07
2019-02-18T11:34:22.510Z,11.00
2019-02-18T11:36:51.562Z,11.93
2019-02-18T11:39:20.661Z,12.20
2019-02-18T11:41:49.518Z,12.13
2019-02-18T11:44:18.886Z,11.20
2019-02-18T11:46:47.740Z,11.50
2019-02-18T11:49:16.613Z,11.10
2019-02-18T11:51:45.439Z,10.93
2019-02-18T11:54:14.252Z,10.77
2019-02-18T11:56:43.570Z,11.30
2019-02-18T11:59:12.603Z,10.77
2019-02-18T12:01:41.850Z,11.73
2019-02-18T12:04:11.131Z,11.50
2019-02-18T12:06:41.657Z,11.37
2019-02-18T12:09:17.745Z,11.30
2019-02-18T12:11:45.715Z,11.33
2019-02-18T12:14:14.670Z,10.97
2019-02-18T12:16:43.557Z,11.20
2019-02-18T12:19:12.480Z,11.70
2019-02-18T12:21:41.296Z,12.00
2019-02-18T12:24:10.102Z,11.43
2019-02-18T12:26:39.105Z,11.87
2019-02-18T12:29:07.934Z,12.43
2019-02-18T12:31:36.769Z,11.33
2019-02-18T12:34:05.586Z,11.50
2019-02-18T12:36:37.867Z,11.30
2019-02-18T12:39:13.401Z,12.10
2019-02-18T12:41:48.681Z,12.57
2019-02-18T12:44:14.257Z,11.20
2019-02-18T12:46:43.119Z,12.20
2019-02-18T12:49:12.109Z,11.27
2019-02-18T12:51:42.680Z,11.90
2019-02-18T12:54:11.723Z,12.00
2019-02-18T12:56:41.253Z,11.67
2019-02-18T12:59:10.328Z,12.30
2019-02-18T13:01:39.853Z,12.70
2019-02-18T13:04:08.886Z,12.43
2019-02-18T13:06:37.914Z,11.93
2019-02-18T13:09:07.522Z,11.63
2019-02-18T13:11:36.784Z,12.83
2019-02-18T13:14:05.804Z,12.17
2019-02-18T13:16:35.478Z,10.87
2019-02-18T13:19:04.501Z,12.33
2019-02-18T13:21:33.607Z,11.57
2019-02-18T13:24:02.613Z,11.53
2019-02-18T13:26:31.516Z,12.70
2019-02-18T13:29:00.338Z,11.47
2019-02-18T13:31:29.232Z,12.80
2019-02-18T13:33:58.177Z,12.23
2019-02-18T13:36:28.755Z,12.43
2019-02-18T13:38:59.329Z,11.97
2019-02-18T13:41:28.515Z,12.37
2019-02-18T13:43:57.475Z,11.43
2019-02-18T13:46:27.579Z,12.57
2019-02-18T13:48:56.837Z,12.80
2019-02-18T13:51:25.734Z,12.80
2019-02-18T13:53:55.171Z,12.20
2019-02-18T13:56:24.470Z,12.87
2019-02-18T13:58:53.769Z,12.10
2019-02-18T14:01:23.063Z,13.17
2019-02-18T14:03:52.252Z,12.07
2019-02-18T14:06:21.126Z,12.27
2019-02-18T14:08:50.012Z,12.43
2019-02-18T14:11:18.904Z,12.53
2019-02-18T14:13:48.644Z,12.60
2019-02-18T14:16:17.877Z,11.63
2019-02-18T14:18:47.074Z,12.93
2019-02-18T14:21:16.379Z,12.43
2019-02-18T14:23:45.303Z,12.47
2019-02-18T14:26:14.354Z,12.30
2019-02-18T14:28:43.667Z,12.47
2019-02-18T14:31:12.683Z,12.83
2019-02-18T14:33:41.671Z,13.33
2019-02-18T14:36:11.091Z,12.80
2019-02-18T14:38:43.572Z,11.63
2019-02-18T14:41:15.306Z,11.97
2019-02-18T14:43:44.301Z,11.47
2019-02-18T14:46:19.663Z,12.43
2019-02-18T14:48:50.209Z,12.33
2019-02-18T14:51:19.725Z,11.50
2019-02-18T14:53:49.186Z,11.90
2019-02-18T14:56:18.347Z,11.13
2019-02-18T14:58:47.155Z,11.70
2019-02-18T15:01:16.646Z,11.60
2019-02-18T15:03:45.529Z,11.87
2019-02-18T15:06:15.557Z,11.37
2019-02-18T15:08:44.347Z,12.10
2019-02-18T15:11:13.468Z,11.93
2019-02-18T15:13:42.366Z,12.53
2019-02-18T15:16:11.689Z,12.50
2019-02-18T15:18:41.446Z,11.97
2019-02-18T15:21:11.019Z,11.50
2019-02-18T15:23:39.915Z,11.67
2019-02-18T15:26:09.216Z,12.23
2019-02-18T15:28:38.083Z,11.40
2019-02-18T15:31:08.958Z,12.60
2019-02-18T15:33:37.784Z,11.30
2019-02-18T15:36:06.774Z,12.63
2019-02-18T15:38:36.019Z,11.57
2019-02-18T15:41:05.196Z,11.40
2019-02-18T15:43:35.326Z,12.50
2019-02-18T15:46:04.857Z,11.53
2019-02-18T15:48:33.892Z,11.93
2019-02-18T15:51:02.777Z,12.20
2019-02-18T15:53:31.762Z,11.20
2019-02-18T15:56:00.869Z,12.00
2019-02-18T15:58:29.756Z,11.20
2019-02-18T16:00:59.392Z,11.23
2019-02-18T16:03:28.374Z,11.67
2019-02-18T16:05:58.334Z,11.57
2019-02-18T16:08:27.279Z,12.30
2019-02-18T16:10:56.106Z,12.70
2019-02-18T16:13:27.019Z,12.27
2019-02-18T16:15:56.130Z,11.10
2019-02-18T16:18:24.929Z,11.10
2019-02-18T16:20:53.730Z,11.13
2019-02-18T16:23:23.073Z,10.87
2019-02-18T16:25:52.670Z,10.43
2019-02-18T16:28:21.508Z,11.20
2019-02-18T16:30:50.482Z,10.37
2019-02-18T16:33:20.211Z,11.03
2019-02-18T16:35:50.459Z,10.20
2019-02-18T16:38:19.596Z,12.37
2019-02-18T16:40:49.524Z,14.50
2019-02-18T16:43:18.573Z,12.60
2019-02-18T16:45:49.468Z,12.30
2019-02-18T16:48:18.933Z,13.00
2019-02-18T16:50:48.146Z,12.63
2019-02-18T16:53:17.740Z,11.73
2019-02-18T16:55:47.154Z,11.27
2019-02-18T16:58:16.887Z,11.93
2019-02-18T17:00:45.888Z,11.27
2019-02-18T17:03:15.067Z,11.10
2019-02-18T17:05:44.006Z,10.93
2019-02-18T17:08:13.346Z,11.80
2019-02-18T17:10:44.671Z,11.30
2019-02-18T17:13:13.506Z,10.90
2019-02-18T17:15:42.502Z,10.63
2019-02-18T17:21:40.009Z,10.10
2019-02-18T17:24:08.828Z,10.30
2019-02-18T17:26:39.270Z,11.30
2019-02-18T17:29:08.685Z,10.40
2019-02-18T17:31:37.466Z,10.43
2019-02-18T17:34:07.139Z,10.80
2019-02-18T17:36:37.646Z,9.90
2019-02-18T17:39:07.808Z,9.97
2019-02-18T17:41:37.774Z,10.03
2019-02-18T17:44:06.676Z,9.97
2019-02-18T17:46:36.696Z,9.97
2019-02-18T17:49:05.650Z,10.13
2019-02-18T17:51:34.645Z,10.23
2019-02-18T17:54:04.735Z,9.47
2019-02-18T17:56:34.360Z,10.03
2019-02-18T17:59:03.414Z,9.73
2019-02-18T18:01:32.312Z,9.87
2019-02-18T18:04:01.375Z,9.80
2019-02-18T18:06:30.943Z,9.83
2019-02-18T18:09:00.827Z,10.73
2019-02-18T18:11:30.397Z,10.90
2019-02-18T18:13:59.338Z,9.90
2019-02-18T18:16:28.357Z,9.83
2019-02-18T18:18:57.316Z,10.20
2019-02-18T18:21:26.272Z,9.80
2019-02-18T18:23:55.507Z,9.40
2019-02-18T18:26:24.638Z,9.50
2019-02-18T18:28:54.309Z,10.13
2019-02-18T18:31:23.528Z,9.73
2019-02-18T18:33:53.080Z,9.57
2019-02-18T18:36:22.765Z,9.50
2019-02-18T18:38:53.278Z,9.73
2019-02-18T18:41:22.800Z,9.57
2019-02-18T18:43:51.902Z,9.90
2019-02-18T18:46:21.330Z,10.37
2019-02-18T18:48:51.168Z,10.10
2019-02-18T18:51:20.150Z,9.10
2019-02-18T18:53:50.018Z,9.33
2019-02-18T18:56:18.804Z,10.63
2019-02-18T18:58:48.254Z,10.60
2019-02-18T19:01:17.446Z,9.97
2019-02-18T19:03:52.506Z,10.53
2019-02-18T19:06:22.425Z,10.70
2019-02-18T19:08:51.202Z,10.27
2019-02-18T19:11:20.123Z,10.73
2019-02-18T19:13:49.398Z,10.33
2019-02-18T19:16:18.579Z,10.53
2019-02-18T19:18:47.547Z,11.37
2019-02-18T19:21:17.086Z,10.03
2019-02-18T19:23:46.317Z,10.50
2019-02-18T19:26:15.957Z,10.87
2019-02-18T19:28:46.588Z,13.63
2019-02-18T19:31:15.571Z,11.93
2019-02-18T19:33:45.372Z,12.63
2019-02-18T19:37:13.937Z,13.73
2019-02-18T19:40:38.952Z,15.07
2019-02-18T19:43:22.622Z,13.33
2019-02-18T19:45:51.659Z,13.07
2019-02-18T19:48:21.129Z,12.73
2019-02-18T19:50:51.484Z,13.47
2019-02-18T19:53:21.557Z,13.27
2019-02-18T19:55:50.484Z,12.87
2019-02-18T19:58:20.846Z,13.50
2019-02-18T20:00:50.018Z,14.80
2019-02-18T20:03:18.993Z,14.47
2019-02-18T20:05:47.861Z,14.47
2019-02-18T20:08:19.763Z,13.90
2019-02-18T20:10:49.187Z,13.97
2019-02-18T20:13:19.136Z,14.83
2019-02-18T20:15:47.984Z,13.83
2019-02-18T20:18:17.062Z,14.93
2019-02-18T20:20:46.729Z,14.23
2019-02-18T20:23:16.980Z,14.60
2019-02-18T20:25:45.884Z,14.57
2019-02-18T20:28:14.721Z,14.03
2019-02-18T20:30:49.784Z,14.60
2019-02-18T20:33:18.684Z,16.23
2019-02-18T20:35:47.989Z,15.70
2019-02-18T20:38:16.864Z,14.73
2019-02-18T20:40:46.349Z,15.30
2019-02-18T20:43:16.053Z,14.70
2019-02-18T20:45:45.354Z,14.70
2019-02-18T20:48:14.437Z,16.33
2019-02-18T20:50:43.642Z,15.27
2019-02-18T20:53:12.481Z,14.90
2019-02-18T20:55:43.037Z,15.20
2019-02-18T20:58:12.026Z,15.03
2019-02-18T21:00:40.996Z,14.40
2019-02-18T21:03:10.257Z,14.43
2019-02-18T21:05:40.432Z,13.83
2019-02-18T21:08:09.245Z,14.47
2019-02-18T21:10:39.868Z,13.63
2019-02-18T21:13:09.172Z,13.87
2019-02-18T21:15:38.445Z,14.47
2019-02-18T21:18:09.265Z,13.57
2019-02-18T21:20:38.741Z,14.23
2019-02-18T21:23:08.468Z,14.10
2019-02-18T21:25:37.646Z,14.40
2019-02-18T21:28:06.914Z,13.97
2019-02-18T21:30:36.005Z,13.97
2019-02-18T21:33:05.073Z,14.30
2019-02-18T21:35:34.089Z,14.37
2019-02-18T21:38:04.408Z,14.73
2019-02-18T21:40:33.291Z,14.53
2019-02-18T21:43:02.242Z,14.40
2019-02-18T21:45:31.387Z,14.13
2019-02-18T21:48:00.823Z,14.13
2019-02-18T21:50:29.878Z,14.03
2019-02-18T21:52:58.843Z,13.60
2019-02-18T21:55:27.884Z,14.00
2019-02-18T21:57:56.779Z,13.03
2019-02-18T22:00:27.011Z,13.60
2019-02-18T22:02:56.154Z,14.23
2019-02-18T22:05:27.020Z,13.63
2019-02-18T22:07:57.371Z,13.17
2019-02-18T22:10:26.953Z,13.93
2019-02-18T22:12:56.331Z,12.60
2019-02-18T22:15:27.600Z,18.07
2019-02-18T22:17:56.829Z,16.33
2019-02-18T22:20:25.968Z,16.20
2019-02-18T22:22:54.957Z,14.47
2019-02-18T22:25:25.049Z,13.37
2019-02-18T22:27:54.090Z,13.17
2019-02-18T22:30:22.929Z,13.60
2019-02-18T22:32:52.423Z,13.93
2019-02-18T22:35:21.425Z,13.50
2019-02-18T22:37:50.266Z,14.53
2019-02-18T22:40:20.023Z,14.57
2019-02-18T22:42:49.932Z,13.43
2019-02-18T22:45:18.884Z,14.27
2019-02-18T22:47:50.114Z,13.43
2019-02-18T22:50:19.248Z,13.37
2019-02-18T22:52:50.943Z,13.57
2019-02-18T22:55:20.068Z,13.70
2019-02-18T22:57:49.257Z,13.30
2019-02-18T23:01:02.065Z,12.97
2019-02-18T23:03:31.211Z,13.17
2019-02-18T23:06:00.292Z,12.73
2019-02-18T23:08:29.459Z,12.87
2019-02-18T23:10:59.083Z,13.53
2019-02-18T23:13:29.361Z,12.53
2019-02-18T23:15:58.384Z,13.00
2019-02-18T23:18:27.911Z,13.63
2019-02-18T23:20:57.898Z,12.93
2019-02-18T23:23:27.164Z,12.33
2019-02-18T23:25:55.990Z,12.60
2019-02-18T23:28:25.056Z,12.80
2019-02-18T23:30:53.955Z,13.27
2019-02-18T23:33:23.488Z,11.93
2019-02-18T23:35:52.538Z,13.17
2019-02-18T23:38:21.478Z,13.20
2019-02-18T23:40:50.342Z,12.90
2019-02-18T23:43:19.933Z,13.03
2019-02-18T23:45:48.845Z,12.10
2019-02-18T23:48:17.940Z,12.60
2019-02-18T23:50:46.777Z,12.77
2019-02-18T23:53:16.054Z,12.93
2019-02-18T23:55:45.215Z,12.17
2019-02-18T23:58:14.410Z,12.67
